Time;durP1;ratioP1;P1;durP2;ratioP2;P2;SDS_P1;SDS_P2;PMS_P1;PMS_P2;Temp;Humidity;BMP_temperature;BMP_pressure;BME280_temperature;BME280_humidity;BME280_pressure;Samples;Min_cycle;Max_cycle;Signal;HPM_P1;HPM_P2
2021/01/20 00:02:49;;;;;;;;;78.50;63.25;;;;;-11.36;62.58;102062.25;6154949;23;8809;-71
2021/01/20 00:05:47;;;;;;;;;73.25;58.75;;;;;-11.63;62.31;102061.34;6154620;23;8802;-71
2021/01/20 00:08:43;;;;;;;;;75.25;59.50;;;;;-11.63;62.64;102066.69;6154948;23;8864;-70
2021/01/20 00:11:38;;;;;;;;;80.25;58.50;;;;;-11.55;62.27;102061.44;6154599;23;8822;-70
2021/01/20 00:14:34;;;;;;;;;75.25;63.25;;;;;-11.37;62.23;102063.25;6154867;23;9577;-71
2021/01/20 00:17:30;;;;;;;;;74.75;62.00;;;;;-11.63;61.03;102066.69;6135308;23;8812;-71
2021/01/20 00:20:25;;;;;;;;;88.50;67.00;;;;;-11.63;61.98;102066.69;6154729;23;8828;-71
2021/01/20 00:23:21;;;;;;;;;90.75;69.00;;;;;-11.61;61.82;102064.72;6154671;23;8810;-70
2021/01/20 00:26:17;;;;;;;;;80.50;63.25;;;;;-11.67;61.86;102072.47;6154818;23;8806;-71
2021/01/20 00:29:12;;;;;;;;;89.25;71.00;;;;;-11.72;61.44;102077.44;6154372;23;8920;-70
2021/01/20 00:32:08;;;;;;;;;104.50;83.25;;;;;-11.86;61.69;102077.00;6154720;23;8833;-71
2021/01/20 00:34:36;;;;;;;;;114.00;92.00;;;;;-11.63;62.02;102076.53;6164302;23;8798;-70
2021/01/20 00:37:32;;;;;;;;;125.50;94.50;;;;;-11.84;61.97;102083.03;6154682;23;8816;-70
2021/01/20 00:40:27;;;;;;;;;136.00;109.75;;;;;-11.90;62.60;102083.63;6154467;23;9492;-71
2021/01/20 00:43:23;;;;;;;;;103.00;68.50;;;;;-11.91;62.43;102081.09;6154217;23;8813;-70
2021/01/20 00:46:18;;;;;;;;;31.50;31.50;;;;;-11.82;62.40;102083.69;6154631;23;8872;-71
2021/01/20 00:49:14;;;;;;;;;126.25;104.25;;;;;-12.08;61.89;102083.59;6154419;23;8829;-71
2021/01/20 00:52:09;;;;;;;;;135.25;115.25;;;;;-11.64;61.85;102085.53;6154644;23;8856;-72
2021/01/20 00:55:06;;;;;;;;;165.00;124.75;;;;;-11.96;61.63;102086.91;6135093;23;8790;-71
2021/01/20 00:57:34;;;;;;;;;118.75;101.00;;;;;-12.02;62.30;102094.66;6164449;23;8816;-70
2021/01/20 01:00:29;;;;;;;;;124.75;98.50;;;;;-12.13;62.58;102093.00;6154345;23;9540;-70
2021/01/20 01:03:25;;;;;;;;;141.50;114.00;;;;;-12.11;63.04;102086.56;6154135;23;8879;-70
2021/01/20 01:05:52;;;;;;;;;111.50;81.00;;;;;-12.15;63.45;102085.16;6155537;23;8809;-71
2021/01/20 01:08:48;;;;;;;;;142.25;114.75;;;;;-12.04;63.10;102088.63;6154434;23;8872;-70
2021/01/20 01:11:15;;;;;;;;;135.25;102.25;;;;;-12.14;63.45;102086.84;6164206;23;8831;-71
2021/01/20 01:13:43;;;;;;;;;115.50;99.50;;;;;-12.03;62.45;102096.50;6164224;23;8802;-71
2021/01/20 01:16:39;;;;;;;;;132.75;106.25;;;;;-12.20;62.32;102095.44;6154265;23;8922;-71
2021/01/20 01:19:34;;;;;;;;;116.50;100.50;;;;;-12.33;62.79;102094.94;6153909;23;8786;-72
2021/01/20 01:22:30;;;;;;;;;100.25;67.50;;;;;-12.32;62.99;102099.28;6154306;23;8909;-71
2021/01/20 01:25:25;;;;;;;;;109.50;78.50;;;;;-12.30;62.67;102091.13;6154121;23;8794;-71
2021/01/20 01:28:21;;;;;;;;;135.00;106.75;;;;;-12.28;62.62;102092.66;6154138;23;8809;-71
2021/01/20 01:31:17;;;;;;;;;124.50;101.50;;;;;-12.40;62.24;102094.69;6154160;23;8806;-70
2021/01/20 01:34:13;;;;;;;;;136.50;113.00;;;;;-12.35;62.43;102102.22;6134448;23;8817;-70
2021/01/20 01:37:09;;;;;;;;;146.50;131.00;;;;;-12.36;62.60;102090.72;6153992;23;8789;-71
2021/01/20 01:40:06;;;;;;;;;113.50;86.75;;;;;-12.43;62.60;102094.97;6154063;23;8794;-71
2021/01/20 01:43:02;;;;;;;;;176.50;126.75;;;;;-12.44;62.90;102095.94;6153765;23;8820;-71
2021/01/20 01:45:57;;;;;;;;;142.50;112.50;;;;;-12.48;62.85;102093.75;6154856;23;8793;-71
2021/01/20 01:48:54;;;;;;;;;114.75;97.25;;;;;-12.48;63.11;102094.59;6153880;23;8917;-71
2021/01/20 01:51:50;;;;;;;;;132.75;116.00;;;;;-12.52;62.65;102100.34;6153620;23;8797;-71
2021/01/20 01:54:46;;;;;;;;;125.25;110.25;;;;;-12.37;63.06;102107.72;6153724;23;8794;-71
2021/01/20 01:57:42;;;;;;;;;126.75;100.00;;;;;-12.25;61.34;102095.06;6153880;23;8790;-72
2021/01/20 02:00:40;;;;;;;;;124.50;106.00;;;;;-12.23;61.49;102111.75;6153950;23;9027;-71
2021/01/20 02:03:36;;;;;;;;;116.50;96.50;;;;;-12.49;61.52;102114.22;6153613;23;8939;-71
2021/01/20 02:06:32;;;;;;;;;114.50;93.00;;;;;-12.47;61.61;102114.06;6153765;23;8790;-71
2021/01/20 02:09:28;;;;;;;;;136.50;111.75;;;;;-12.53;61.47;102110.16;6153728;23;8805;-71
2021/01/20 02:12:35;;;;;;;;;179.25;142.50;;;;;-12.78;61.42;102106.31;6153901;23;8793;-71
2021/01/20 02:15:56;;;;;;;;;201.00;148.75;;;;;-12.92;61.45;102115.59;6133964;23;8794;-70
2021/01/20 02:18:53;;;;;;;;;127.00;80.75;;;;;-12.99;61.80;102108.31;6153632;23;8794;-71
2021/01/20 02:22:15;;;;;;;;;132.50;113.75;;;;;-12.93;62.21;102113.91;6134257;23;8834;-71
2021/01/20 02:25:21;;;;;;;;;134.00;117.25;;;;;-13.02;62.27;102120.09;6163558;23;8797;-71
2021/01/20 02:28:26;;;;;;;;;168.75;141.75;;;;;-13.11;62.00;102118.28;6134279;23;8888;-72
2021/01/20 02:31:25;;;;;;;;;161.25;116.75;;;;;-13.21;62.30;102112.13;6153498;23;8869;-71
2021/01/20 02:34:22;;;;;;;;;242.75;182.25;;;;;-13.13;62.03;102109.56;6153565;23;8801;-71
2021/01/20 02:37:17;;;;;;;;;264.25;207.50;;;;;-13.23;61.76;102114.94;6153462;23;8964;-71
2021/01/20 02:40:14;;;;;;;;;263.25;192.50;;;;;-13.23;62.18;102122.94;6134069;23;8798;-71
2021/01/20 02:43:10;;;;;;;;;243.75;181.50;;;;;-13.28;62.23;102122.50;6153561;23;8802;-71
2021/01/20 02:46:06;;;;;;;;;214.00;169.00;;;;;-13.32;62.36;102109.63;6153652;23;8932;-71
2021/01/20 02:49:03;;;;;;;;;225.75;172.25;;;;;-13.31;62.26;102117.47;6133931;23;8798;-71
2021/01/20 02:52:23;;;;;;;;;193.25;132.00;;;;;-13.38;61.99;102128.81;6153292;23;8841;-70
2021/01/20 02:55:23;;;;;;;;;252.75;193.00;;;;;-13.46;61.97;102126.84;6153492;23;8892;-71
2021/01/20 02:58:33;;;;;;;;;241.25;199.00;;;;;-13.50;62.11;102125.44;6153931;23;8868;-70
2021/01/20 03:01:27;;;;;;;;;217.50;167.25;;;;;-13.51;61.78;102129.91;6114955;23;8825;-71
2021/01/20 03:04:23;;;;;;;;;222.50;167.25;;;;;-13.54;61.69;102137.34;6153189;23;8794;-70
2021/01/20 03:07:20;;;;;;;;;186.50;129.25;;;;;-13.55;61.87;102139.19;6153360;23;8814;-71
2021/01/20 03:10:17;;;;;;;;;227.25;169.00;;;;;-13.64;62.04;102140.00;6153377;23;8805;-70
2021/01/20 03:13:14;;;;;;;;;199.25;155.25;;;;;-13.66;61.85;102141.94;6153455;23;8802;-70
2021/01/20 03:15:44;;;;;;;;;222.75;176.50;;;;;-13.82;61.86;102138.97;6138476;23;9475;-70
2021/01/20 03:18:40;;;;;;;;;185.00;139.00;;;;;-13.89;62.05;102141.31;6155340;23;8813;-71
2021/01/20 03:21:36;;;;;;;;;175.75;147.75;;;;;-13.90;62.46;102134.31;6155378;23;8829;-71
2021/01/20 03:24:31;;;;;;;;;180.25;143.50;;;;;-13.87;62.22;102139.41;6155105;23;8844;-71
2021/01/20 03:27:27;;;;;;;;;140.75;124.75;;;;;-13.82;61.83;102141.63;6155246;23;8884;-71
2021/01/20 03:30:23;;;;;;;;;151.50;121.00;;;;;-13.91;62.54;102135.31;6154938;23;8809;-70
2021/01/20 03:33:18;;;;;;;;;146.25;114.00;;;;;-13.97;62.30;102135.84;6155232;23;8825;-71
2021/01/20 03:36:14;;;;;;;;;112.25;89.25;;;;;-13.93;61.69;102149.72;6155058;23;8818;-71
2021/01/20 03:39:09;;;;;;;;;141.00;101.00;;;;;-14.12;62.28;102148.66;6154913;23;8835;-71
2021/01/20 03:42:05;;;;;;;;;136.00;106.75;;;;;-14.07;61.61;102158.91;6155038;23;8814;-72
2021/01/20 03:45:02;;;;;;;;;155.50;123.75;;;;;-14.16;61.75;102154.41;6154431;23;8840;-70
2021/01/20 03:47:57;;;;;;;;;148.50;116.25;;;;;-14.13;61.77;102164.75;6135511;23;8810;-70
2021/01/20 03:50:53;;;;;;;;;139.75;113.75;;;;;-13.86;61.61;102165.00;6154723;23;8999;-71
2021/01/20 03:53:49;;;;;;;;;116.00;87.00;;;;;-14.02;61.53;102167.34;6154946;23;8841;-72
2021/01/20 03:56:44;;;;;;;;;140.25;117.00;;;;;-14.02;61.31;102163.84;6155058;23;8809;-71
2021/01/20 03:59:40;;;;;;;;;128.25;101.25;;;;;-13.47;61.38;102170.41;6154711;23;8826;-70
2021/01/20 04:02:35;;;;;;;;;94.00;69.00;;;;;-13.80;61.49;102169.78;6154856;23;8904;-71
2021/01/20 04:05:31;;;;;;;;;73.75;47.50;;;;;-13.92;61.35;102172.69;6154624;23;8925;-71
2021/01/20 04:08:26;;;;;;;;;135.00;112.00;;;;;-13.91;61.81;102167.22;6154748;23;8840;-71
2021/01/20 04:10:54;;;;;;;;;122.25;101.75;;;;;-13.96;62.00;102174.75;6164543;23;8872;-70
2021/01/20 04:13:50;;;;;;;;;125.25;111.75;;;;;-13.90;61.75;102165.41;6154600;23;8895;-70
2021/01/20 04:16:46;;;;;;;;;89.50;59.50;;;;;-14.03;61.93;102160.31;6135381;23;8820;-70
2021/01/20 04:19:41;;;;;;;;;147.00;116.25;;;;;-14.11;62.10;102165.47;6154617;23;8823;-71
2021/01/20 04:22:17;;;;;;;;;141.50;112.75;;;;;-14.18;62.05;102161.66;6164594;23;8785;-70
2021/01/20 04:25:13;;;;;;;;;131.00;106.50;;;;;-14.13;62.11;102162.09;6154572;23;8936;-71
2021/01/20 04:28:08;;;;;;;;;131.25;103.75;;;;;-14.26;61.98;102164.13;6154332;23;8821;-70
2021/01/20 04:31:04;;;;;;;;;139.00;113.25;;;;;-14.31;62.07;102172.53;6135162;23;8801;-71
2021/01/20 04:34:00;;;;;;;;;142.50;113.50;;;;;-14.25;61.63;102172.00;6154403;23;8825;-70
2021/01/20 04:36:56;;;;;;;;;123.25;97.50;;;;;-14.21;61.60;102172.56;6154599;23;9011;-71
2021/01/20 04:39:51;;;;;;;;;139.75;121.50;;;;;-14.12;61.71;102164.63;6154212;23;8814;-71
2021/01/20 04:42:19;;;;;;;;;139.75;116.50;;;;;-13.96;61.42;102168.59;6158936;23;8838;-71
2021/01/20 04:45:14;;;;;;;;;145.25;117.00;;;;;-14.10;61.09;102172.50;6153173;23;8818;-70
2021/01/20 04:48:11;;;;;;;;;113.00;82.25;;;;;-14.26;61.37;102183.56;6154130;23;8984;-70
2021/01/20 04:51:07;;;;;;;;;86.75;59.25;;;;;-14.33;62.04;102182.44;6134906;23;8813;-70
2021/01/20 04:54:05;;;;;;;;;114.75;101.00;;;;;-14.29;61.75;102178.53;6154442;23;8802;-70
2021/01/20 04:56:32;;;;;;;;;110.25;89.00;;;;;-14.44;61.88;102183.34;6164268;23;8802;-70
2021/01/20 04:59:29;;;;;;;;;112.75;82.00;;;;;-14.46;62.00;102180.03;6154168;23;8831;-71
2021/01/20 05:02:29;;;;;;;;;23.75;23.75;;;;;-14.47;61.88;102194.28;6134962;23;8786;-71
2021/01/20 05:05:26;;;;;;;;;129.00;102.25;;;;;-14.34;61.45;102191.38;6134594;23;8848;-70
2021/01/20 05:08:22;;;;;;;;;116.75;95.75;;;;;-14.29;61.87;102180.38;6154204;23;8820;-71
2021/01/20 05:11:18;;;;;;;;;105.50;82.25;;;;;-14.26;61.65;102190.72;6153908;23;8813;-70
2021/01/20 05:14:18;;;;;;;;;114.75;92.25;;;;;-14.19;61.08;102191.88;6153686;23;8817;-71
2021/01/20 05:17:13;;;;;;;;;163.75;136.25;;;;;-14.33;60.98;102203.72;6154129;23;9003;-71
2021/01/20 05:20:26;;;;;;;;;135.00;113.50;;;;;-14.23;61.43;102212.56;6153987;23;8829;-70
2021/01/20 05:23:25;;;;;;;;;159.75;138.00;;;;;-14.21;61.10;102215.09;6152458;23;8904;-70
2021/01/20 05:25:53;;;;;;;;;183.75;139.50;;;;;-14.29;61.48;102217.56;6162600;23;8790;-71
2021/01/20 05:28:48;;;;;;;;;192.25;160.50;;;;;-14.31;61.01;102223.03;6153416;23;8845;-71
2021/01/20 05:31:44;;;;;;;;;184.00;149.25;;;;;-14.33;61.49;102230.28;6153737;23;8825;-70
2021/01/20 05:34:40;;;;;;;;;169.50;147.25;;;;;-14.19;61.53;102226.44;6153571;23;8805;-71
2021/01/20 05:37:46;;;;;;;;;195.25;154.25;;;;;-14.22;61.52;102222.22;6153495;23;8804;-71
2021/01/20 05:40:41;;;;;;;;;193.00;143.25;;;;;-14.15;61.74;102222.56;6153420;23;8814;-71
2021/01/20 05:43:37;;;;;;;;;183.00;135.75;;;;;-13.99;61.61;102225.56;6152986;23;8797;-71
2021/01/20 05:46:05;;;;;;;;;193.50;141.00;;;;;-13.87;61.72;102232.50;6163491;23;8812;-71
2021/01/20 05:49:01;;;;;;;;;170.75;131.75;;;;;-13.93;62.57;102240.16;6151499;23;8818;-71
2021/01/20 05:51:39;;;;;;;;;93.00;63.25;;;;;-14.00;62.35;102228.34;6163782;23;8813;-72
2021/01/20 05:54:36;;;;;;;;;135.75;120.00;;;;;-14.03;62.21;102242.75;6153112;23;8802;-72
2021/01/20 05:57:13;;;;;;;;;163.50;123.25;;;;;-14.03;61.45;102245.41;6163536;23;8798;-72
2021/01/20 06:00:18;;;;;;;;;144.50;119.00;;;;;-14.20;61.60;102254.84;6152811;23;8939;-72
2021/01/20 06:03:13;;;;;;;;;134.50;123.25;;;;;-14.14;61.45;102264.09;6153602;23;8801;-72
2021/01/20 06:06:10;;;;;;;;;127.00;113.75;;;;;-14.13;61.35;102266.63;6153135;23;8837;-71
2021/01/20 06:09:08;;;;;;;;;152.00;131.25;;;;;-14.17;61.30;102272.38;6153513;23;8812;-70
2021/01/20 06:12:05;;;;;;;;;172.00;143.25;;;;;-14.17;60.97;102281.19;6153824;23;8883;-71
2021/01/20 06:15:01;;;;;;;;;168.00;133.50;;;;;-14.16;60.88;102276.69;6154153;23;8812;-71
2021/01/20 06:17:58;;;;;;;;;145.25;121.75;;;;;-14.16;60.89;102274.03;6153580;23;8825;-71
2021/01/20 06:20:54;;;;;;;;;153.25;124.50;;;;;-14.22;61.10;102274.56;6153741;23;8812;-71
2021/01/20 06:24:05;;;;;;;;;159.00;123.75;;;;;-14.02;60.71;102279.03;6153138;23;8899;-71
2021/01/20 06:27:16;;;;;;;;;147.75;126.75;;;;;-14.04;61.00;102276.47;6152774;23;8903;-71
2021/01/20 06:30:22;;;;;;;;;163.25;134.75;;;;;-14.15;61.92;102278.38;6153327;23;9002;-71
2021/01/20 06:33:20;;;;;;;;;201.75;159.75;;;;;-14.08;61.95;102274.22;6152784;23;8809;-71
2021/01/20 06:36:36;;;;;;;;;169.50;146.75;;;;;-13.93;61.63;102278.22;6153192;23;8805;-71
2021/01/20 06:39:33;;;;;;;;;164.00;144.25;;;;;-13.87;61.09;102271.53;6152878;23;8858;-71
2021/01/20 06:42:31;;;;;;;;;90.75;48.25;;;;;-13.98;60.99;102288.41;6152005;23;8841;-71
2021/01/20 06:45:26;;;;;;;;;150.75;120.25;;;;;-13.93;60.68;102285.38;6152668;23;8829;-71
2021/01/20 06:48:22;;;;;;;;;156.75;125.25;;;;;-13.87;61.91;102280.38;6152244;23;8805;-71
2021/01/20 06:51:05;;;;;;;;;157.50;122.50;;;;;-13.52;61.21;102295.06;6130275;23;8801;-71
2021/01/20 06:54:11;;;;;;;;;132.50;102.75;;;;;-13.56;61.09;102296.31;6154780;23;8802;-71
2021/01/20 06:57:41;;;;;;;;;115.50;92.25;;;;;-13.36;61.36;102287.41;6154836;23;8805;-71
2021/01/20 07:00:37;;;;;;;;;133.00;103.75;;;;;-13.62;62.64;102292.38;6117072;23;8833;-71
2021/01/20 07:03:48;;;;;;;;;130.50;116.00;;;;;-13.85;63.09;102304.16;6155172;23;8801;-70
2021/01/20 07:06:44;;;;;;;;;63.25;49.75;;;;;-13.51;63.02;102305.56;6154631;23;8911;-71
2021/01/20 07:09:49;;;;;;;;;99.25;69.50;;;;;-13.40;63.27;102299.31;6154851;23;8806;-70
2021/01/20 07:13:10;;;;;;;;;112.00;88.75;;;;;-13.43;63.13;102294.25;6155267;23;8848;-71
2021/01/20 07:16:08;;;;;;;;;142.50;113.25;;;;;-13.09;62.44;102299.22;6153586;23;8802;-71
2021/01/20 07:19:04;;;;;;;;;114.25;89.75;;;;;-12.93;62.13;102305.72;6153860;23;8805;-70
2021/01/20 07:21:33;;;;;;;;;134.25;115.50;;;;;-12.72;61.63;102297.59;6138251;23;8794;-70
2021/01/20 07:24:00;;;;;;;;;136.50;115.50;;;;;-12.69;61.38;102299.97;6165081;23;8793;-71
2021/01/20 07:26:28;;;;;;;;;117.50;102.50;;;;;-12.60;61.18;102305.44;6164168;23;8868;-70
2021/01/20 07:29:27;;;;;;;;;123.50;101.25;;;;;-12.69;61.72;102307.97;6153542;23;8848;-70
2021/01/20 07:32:30;;;;;;;;;125.00;104.75;;;;;-12.51;62.05;102308.13;6153524;23;8823;-70
2021/01/20 07:35:28;;;;;;;;;120.50;104.25;;;;;-12.46;62.28;102305.88;6154753;23;8928;-71
2021/01/20 07:38:05;;;;;;;;;127.00;102.75;;;;;-12.31;62.69;102316.13;6138908;23;8866;-71
2021/01/20 07:41:19;;;;;;;;;128.00;104.00;;;;;-11.74;61.37;102328.47;6154632;23;9558;-71
2021/01/20 07:44:15;;;;;;;;;150.50;122.25;;;;;-11.92;61.90;102336.41;6154094;23;8790;-70
2021/01/20 07:47:00;;;;;;;;;143.75;114.75;;;;;-11.88;61.76;102329.00;6133247;23;8801;-71
2021/01/20 07:49:29;;;;;;;;;148.75;117.00;;;;;-11.47;60.97;102327.69;6164472;23;8805;-70
2021/01/20 07:52:25;;;;;;;;;122.00;101.25;;;;;-11.16;60.28;102333.59;6153998;23;8869;-70
2021/01/20 07:55:20;;;;;;;;;124.00;100.25;;;;;-10.73;59.90;102332.09;6155142;23;8916;-70
2021/01/20 07:57:56;;;;;;;;;121.25;107.25;;;;;-10.62;59.86;102341.72;6130547;23;8778;-70
2021/01/20 08:00:52;;;;;;;;;115.25;83.00;;;;;-10.63;59.10;102346.22;6154355;23;8836;-69
2021/01/20 08:03:48;;;;;;;;;129.00;97.75;;;;;-10.11;58.69;102346.34;6134520;23;8805;-70
2021/01/20 08:06:43;;;;;;;;;128.00;97.75;;;;;-10.06;58.32;102345.88;6134765;23;8840;-70
2021/01/20 08:09:44;;;;;;;;;149.25;113.25;;;;;-9.88;58.05;102344.84;6154172;23;8837;-71
2021/01/20 08:12:40;;;;;;;;;124.50;102.50;;;;;-9.58;57.74;102346.25;6154344;23;8864;-70
2021/01/20 08:15:39;;;;;;;;;109.50;87.25;;;;;-9.40;57.22;102342.66;6154683;23;8809;-70
2021/01/20 08:18:35;;;;;;;;;118.50;92.75;;;;;-9.39;56.70;102339.81;6154407;23;8797;-70
2021/01/20 08:21:34;;;;;;;;;107.00;74.75;;;;;-9.35;56.69;102346.53;6155411;23;8836;-70
2021/01/20 08:24:30;;;;;;;;;135.00;112.50;;;;;-9.48;56.53;102358.69;6153031;23;8833;-69
2021/01/20 08:27:28;;;;;;;;;131.50;110.00;;;;;-9.00;56.68;102348.19;6154188;23;8798;-70
2021/01/20 08:30:32;;;;;;;;;143.00;107.50;;;;;-9.26;56.20;102353.59;6153965;23;8855;-70
2021/01/20 08:33:28;;;;;;;;;142.25;109.00;;;;;-9.03;56.57;102358.41;6154129;23;8814;-70
2021/01/20 08:36:24;;;;;;;;;136.00;120.00;;;;;-8.88;55.91;102359.47;6153887;23;8814;-70
2021/01/20 08:39:07;;;;;;;;;133.50;110.25;;;;;-8.56;56.01;102348.00;6164295;23;8797;-71
2021/01/20 08:41:34;;;;;;;;;125.50;105.75;;;;;-8.47;55.72;102357.72;6161226;23;8801;-72
2021/01/20 08:44:30;;;;;;;;;126.75;101.75;;;;;-8.55;55.50;102359.56;6153859;23;8835;-71
2021/01/20 08:47:26;;;;;;;;;126.00;100.25;;;;;-8.35;55.05;102354.75;6153982;23;8801;-70
2021/01/20 08:49:54;;;;;;;;;128.75;109.50;;;;;-7.94;55.10;102361.78;6163662;23;8786;-70
2021/01/20 08:52:51;;;;;;;;;135.00;112.75;;;;;-8.01;55.23;102350.03;6154124;23;8814;-71
2021/01/20 08:55:36;;;;;;;;;125.00;103.50;;;;;-8.06;55.12;102352.34;6164356;23;8821;-71
2021/01/20 08:58:30;;;;;;;;;114.25;96.75;;;;;-7.74;54.12;102354.22;6164061;23;8793;-71
2021/01/20 09:01:09;;;;;;;;;118.50;99.75;;;;;-7.66;54.14;102351.50;6163866;23;8786;-70
2021/01/20 09:03:38;;;;;;;;;116.50;100.75;;;;;-7.90;54.56;102351.50;6155137;23;8821;-71
2021/01/20 09:06:14;;;;;;;;;116.00;100.75;;;;;-7.38;54.08;102348.41;6164065;23;8840;-71
2021/01/20 09:09:09;;;;;;;;;116.25;90.00;;;;;-7.56;54.41;102349.47;6153124;23;8908;-72
2021/01/20 09:11:51;;;;;;;;;113.00;92.00;;;;;-7.02;53.14;102356.88;6155384;23;8810;-70
2021/01/20 09:14:18;;;;;;;;;111.75;95.75;;;;;-6.73;52.53;102358.94;6163559;23;8817;-70
2021/01/20 09:17:15;;;;;;;;;90.25;63.50;;;;;-6.62;51.76;102357.69;6152386;23;8829;-70
2021/01/20 09:19:43;;;;;;;;;114.75;91.25;;;;;-6.86;52.16;102355.97;6155535;23;9503;-72
2021/01/20 09:22:15;;;;;;;;;111.00;89.00;;;;;-6.66;51.61;102359.91;6163933;23;8826;-71
2021/01/20 09:24:42;;;;;;;;;100.50;82.00;;;;;-7.09;52.38;102361.28;6138058;23;8895;-71
2021/01/20 09:27:10;;;;;;;;;106.25;79.00;;;;;-6.76;51.97;102364.66;6163351;23;8874;-71
2021/01/20 09:29:37;;;;;;;;;112.25;88.00;;;;;-6.72;50.75;102369.53;6137828;23;9527;-71
2021/01/20 09:32:40;;;;;;;;;104.50;81.50;;;;;-6.19;50.47;102356.25;6153166;23;8830;-71
2021/01/20 09:35:28;;;;;;;;;84.00;68.00;;;;;-6.31;48.96;102354.97;6154345;23;8817;-71
2021/01/20 09:38:00;;;;;;;;;68.00;53.00;;;;;-5.78;48.31;102354.03;6154749;23;8931;-71
2021/01/20 09:40:28;;;;;;;;;83.75;66.75;;;;;-5.74;48.71;102349.94;6135306;23;8829;-71
2021/01/20 09:43:24;;;;;;;;;80.25;60.25;;;;;-5.79;48.77;102356.91;6129631;23;8833;-72
2021/01/20 09:46:07;;;;;;;;;78.75;60.00;;;;;-5.64;47.29;102353.22;6132483;23;8798;-72
2021/01/20 09:49:03;;;;;;;;;87.50;70.50;;;;;-5.63;47.96;102354.88;6150294;23;8820;-72
2021/01/20 09:51:44;;;;;;;;;85.00;69.00;;;;;-5.59;47.83;102347.28;6150258;23;8840;-72
2021/01/20 09:54:26;;;;;;;;;95.50;72.75;;;;;-5.71;47.87;102348.75;6126885;23;8859;-72
2021/01/20 09:57:22;;;;;;;;;84.25;66.75;;;;;-5.21;47.25;102358.00;6149412;23;8825;-72
2021/01/20 10:00:12;;;;;;;;;95.50;76.00;;;;;-5.10;47.07;102346.75;6151047;23;8848;-72
2021/01/20 10:03:06;;;;;;;;;81.50;61.25;;;;;-5.31;47.46;102344.78;6149848;23;8871;-72
2021/01/20 10:05:42;;;;;;;;;91.25;69.50;;;;;-5.03;46.96;102334.19;6126534;23;8825;-72
2021/01/20 10:08:37;;;;;;;;;95.50;72.25;;;;;-5.13;47.37;102330.94;6149017;23;8825;-72
2021/01/20 10:11:33;;;;;;;;;84.00;68.50;;;;;-5.40;47.69;102332.41;6149460;23;8817;-72
2021/01/20 10:14:04;;;;;;;;;83.25;67.25;;;;;-5.41;48.69;102334.28;6159317;23;9579;-71
2021/01/20 10:17:00;;;;;;;;;60.25;46.00;;;;;-5.52;47.88;102336.56;6149676;23;8837;-71
2021/01/20 10:19:56;;;;;;;;;86.75;70.50;;;;;-5.12;46.41;102332.59;6149244;23;8901;-64
2021/01/20 10:22:51;;;;;;;;;81.75;64.00;;;;;-5.01;46.37;102331.28;6129561;23;8845;-65
2021/01/20 10:25:19;;;;;;;;;78.75;64.00;;;;;-4.66;46.23;102337.75;6159163;23;8845;-72
2021/01/20 10:28:14;;;;;;;;;75.25;64.25;;;;;-4.80;47.84;102331.34;6132212;23;8903;-71
2021/01/20 10:30:52;;;;;;;;;85.50;67.00;;;;;-4.98;47.30;102328.19;6162710;23;8794;-71
2021/01/20 10:33:48;;;;;;;;;82.00;66.00;;;;;-4.85;47.27;102333.78;6154136;23;8818;-71
2021/01/20 10:36:15;;;;;;;;;89.75;68.00;;;;;-4.64;46.25;102330.28;6137582;23;8793;-71
2021/01/20 10:38:51;;;;;;;;;94.00;72.00;;;;;-4.34;47.37;102334.56;6162928;23;8955;-71
2021/01/20 10:41:20;;;;;;;;;97.00;70.25;;;;;-4.86;47.58;102326.72;6161881;23;8931;-71
2021/01/20 10:44:17;;;;;;;;;93.00;68.50;;;;;-4.68;47.52;102324.41;6133739;23;8857;-71
2021/01/20 10:46:44;;;;;;;;;71.50;55.00;;;;;-4.55;47.63;102326.44;6163016;23;8809;-72
2021/01/20 10:49:13;;;;;;;;;81.00;64.50;;;;;-4.87;49.25;102325.88;6137882;23;8809;-71
2021/01/20 10:52:02;;;;;;;;;91.00;67.50;;;;;-4.82;48.63;102319.91;6155505;23;8818;-71
2021/01/20 10:54:34;;;;;;;;;85.25;66.75;;;;;-4.87;49.32;102323.19;6163487;23;8821;-72
2021/01/20 10:57:24;;;;;;;;;80.00;62.00;;;;;-4.84;47.11;102328.19;6157439;23;9508;-72
2021/01/20 10:59:55;;;;;;;;;83.75;66.50;;;;;-4.21;46.67;102332.03;6162895;23;8820;-72
2021/01/20 11:02:31;;;;;;;;;82.50;66.00;;;;;-4.12;46.99;102330.03;6163069;23;8801;-72
2021/01/20 11:05:27;;;;;;;;;86.50;69.00;;;;;-4.98;48.39;102326.38;6153237;23;8817;-72
2021/01/20 11:08:22;;;;;;;;;89.50;69.00;;;;;-4.62;47.86;102331.78;6153311;23;9530;-72
2021/01/20 11:11:18;;;;;;;;;90.75;67.75;;;;;-4.84;47.67;102328.19;6154081;23;8868;-72
2021/01/20 11:14:00;;;;;;;;;81.00;66.00;;;;;-4.73;48.63;102326.03;6153489;23;8852;-72
2021/01/20 11:16:27;;;;;;;;;82.00;63.75;;;;;-4.45;47.74;102321.56;6162867;23;8840;-74
2021/01/20 11:19:03;;;;;;;;;90.00;64.50;;;;;-4.40;47.48;102323.69;6162862;23;9449;-73
2021/01/20 11:21:58;;;;;;;;;77.25;61.00;;;;;-4.69;48.32;102325.44;6134372;23;9513;-72
2021/01/20 11:24:26;;;;;;;;;84.50;66.50;;;;;-4.70;47.03;102329.19;6137527;23;8833;-72
2021/01/20 11:26:53;;;;;;;;;82.50;61.00;;;;;-4.58;48.46;102327.69;6137529;23;8793;-72
2021/01/20 11:30:05;;;;;;;;;77.50;59.00;;;;;-4.33;47.65;102333.53;6153310;23;8796;-73
2021/01/20 11:32:46;;;;;;;;;73.50;57.00;;;;;-4.05;46.77;102328.22;6154324;23;8860;-71
2021/01/20 11:35:13;;;;;;;;;82.50;68.00;;;;;-4.38;47.66;102329.75;6163044;23;9542;-72
2021/01/20 11:38:09;;;;;;;;;82.75;66.50;;;;;-3.95;46.69;102327.88;6154425;23;8853;-72
2021/01/20 11:40:45;;;;;;;;;80.75;64.00;;;;;-4.01;46.15;102325.94;6164025;23;8806;-72
2021/01/20 11:43:40;;;;;;;;;89.25;72.00;;;;;-4.00;46.37;102323.03;6154863;23;8833;-72
2021/01/20 11:46:36;;;;;;;;;80.50;64.00;;;;;-3.90;46.23;102311.91;6135591;23;8810;-73
2021/01/20 11:49:31;;;;;;;;;71.75;60.00;;;;;-4.29;47.21;102313.25;6135427;23;8899;-73
2021/01/20 11:52:12;;;;;;;;;75.00;60.25;;;;;-4.05;46.87;102303.88;6156134;23;8810;-72
2021/01/20 11:54:54;;;;;;;;;88.00;65.25;;;;;-3.81;45.71;102310.75;6133520;23;8805;-73
2021/01/20 11:57:46;;;;;;;;;76.00;60.00;;;;;-3.97;46.36;102305.63;6136645;23;8802;-73
2021/01/20 12:00:41;;;;;;;;;54.50;48.25;;;;;-4.12;47.33;102313.81;6155526;23;8814;-73
2021/01/20 12:03:37;;;;;;;;;74.50;61.00;;;;;-4.04;48.14;102310.97;6154971;23;8810;-73
2021/01/20 12:06:13;;;;;;;;;76.75;60.75;;;;;-4.08;45.59;102315.06;6141046;23;8790;-74
2021/01/20 12:09:09;;;;;;;;;80.25;66.00;;;;;-4.34;48.53;102315.66;6154592;23;8805;-73
2021/01/20 12:12:05;;;;;;;;;73.50;57.00;;;;;-4.28;46.45;102319.47;6154792;23;8920;-72
2021/01/20 12:14:37;;;;;;;;;68.75;58.75;;;;;-3.97;46.47;102321.84;6156265;23;8895;-72
2021/01/20 12:17:26;;;;;;;;;71.00;57.75;;;;;-3.95;46.17;102320.59;6159244;23;8838;-72
2021/01/20 12:20:22;;;;;;;;;68.75;55.25;;;;;-3.92;46.56;102327.47;6154813;23;8817;-73
2021/01/20 12:23:17;;;;;;;;;71.50;60.25;;;;;-4.29;47.83;102328.63;6135265;23;8898;-74
2021/01/20 12:26:13;;;;;;;;;75.25;57.75;;;;;-4.27;46.62;102327.38;6154649;23;8847;-73
2021/01/20 12:29:09;;;;;;;;;74.25;59.75;;;;;-4.27;47.21;102327.38;6154239;23;8875;-73
2021/01/20 12:31:35;;;;;;;;;70.50;58.25;;;;;-4.22;47.05;102334.88;6164466;23;8797;-73
2021/01/20 12:34:02;;;;;;;;;73.50;61.50;;;;;-4.94;47.49;102332.22;6165057;23;8802;-72
2021/01/20 12:36:58;;;;;;;;;80.00;62.25;;;;;-4.70;47.35;102328.34;6154744;23;8896;-72
2021/01/20 12:39:54;;;;;;;;;82.25;62.50;;;;;-4.84;47.31;102330.88;6154494;23;8820;-73
2021/01/20 12:42:21;;;;;;;;;66.00;55.25;;;;;-4.95;48.65;102339.47;6159146;23;8896;-72
2021/01/20 12:45:16;;;;;;;;;76.75;61.50;;;;;-4.80;48.11;102339.47;6154168;23;8833;-73
2021/01/20 12:48:12;;;;;;;;;77.75;57.25;;;;;-4.93;47.92;102341.97;6154087;23;8822;-72
2021/01/20 12:50:54;;;;;;;;;72.00;59.00;;;;;-5.07;48.00;102341.78;6153570;23;8813;-72
2021/01/20 12:53:21;;;;;;;;;70.75;58.75;;;;;-5.07;48.15;102332.88;6162505;23;8813;-72